SBSL/SLZ METAR and TAF weather

Enter ICAO airport designator
Station Type Date Time Source
SBSL METAR 2020/06/03 15:00 UTC NOAA

SBSL 031500Z 08008KT 9999 SCT020 FEW025TCU 31/24 Q1014


Station Type Date Time Source
SBSL Decoded METAR 2020/06/03 15:00 UTC NOAA

Sao Luiz Aeroporto , Brazil (SBSL) 02-36S 044-14W 53M
Jun 03, 2020 - 11:00 AM EDT / 2020.06.03 1500 UTC
Wind: from the E (080 degrees) at 9 MPH (8 KT):0
Visibility: greater than 7 mile(s):0
Sky conditions: partly cloudy
Weather: Towering cumulus clouds observed
Temperature: 87 F (31 C)
Heat index: 95.7 F (35.4 C):1
Dew Point: 75 F (24 C)
Relative Humidity: 66%
Pressure (altimeter): 29.94 in. Hg (1014 hPa)
ob: SBSL 031500Z 08008KT 9999 SCT020 FEW025TCU 31/24 Q1014
cycle: 15

Station Type Date Time Source
SBSL TAF 2020/06/03 12:18 UTC NOAA

TAF SBSL 030900Z 0312/0412 01005KT 9999 FEW020 TX30/0316Z TN23/0408Z PROB40
TEMPO 0316/0320 VCSH SCT020 FEW025TCU
RMK PCO

Example: see airport list